Time;durP1;ratioP1;P1;durP2;ratioP2;P2;SDS_P1;SDS_P2;PMS_P1;PMS_P2;Temp;Humidity;BMP_temperature;BMP_pressure;BME280_temperature;BME280_humidity;BME280_pressure;Samples;Min_cycle;Max_cycle;Signal;HPM_P1;HPM_P2
2022/01/25 00:08:44;;;;;;;22.83;19.00;;;-0.60;99.90;;;0.14;95.02;99435.53;5191401;28;20225;-62
2022/01/25 00:25:55;;;;;;;17.13;14.73;;;-0.70;99.90;;;0.01;95.77;99447.31;5195441;28;20223;-63
2022/01/25 00:28:43;;;;;;;17.67;15.80;;;-0.60;99.90;;;-0.02;95.81;99442.81;5183330;28;20251;-64
2022/01/25 00:31:17;;;;;;;17.60;15.87;;;-0.60;99.90;;;-0.01;96.14;99450.53;5180713;28;20227;-65
2022/01/25 00:33:52;;;;;;;15.93;14.40;;;-0.70;99.90;;;-0.01;95.71;99450.53;5183660;28;20720;-63
2022/01/25 00:36:28;;;;;;;16.20;14.50;;;-0.60;99.90;;;-0.04;96.44;99445.13;5182017;28;20224;-64
2022/01/25 00:39:02;;;;;;;17.60;15.80;;;-0.60;99.90;;;-0.02;96.27;99452.88;5184727;28;20224;-65
2022/01/25 00:41:35;;;;;;;17.93;16.07;;;-0.60;99.90;;;-0.05;96.45;99448.38;5184532;28;20709;-63
2022/01/25 00:44:11;;;;;;;18.83;16.63;;;-0.60;99.90;;;-0.11;96.26;99452.63;5184669;28;20711;-63
2022/01/25 00:46:44;;;;;;;17.97;16.07;;;-0.70;99.90;;;-0.14;96.32;99452.25;5182325;28;20247;-63
2022/01/25 00:49:26;;;;;;;18.23;16.33;;;-0.70;99.90;;;-0.13;96.13;99453.16;5184978;28;20565;-63
2022/01/25 00:52:07;;;;;;;17.20;15.17;;;-0.70;99.90;;;-0.12;95.54;99459.97;5177465;28;20221;-63
2022/01/25 00:54:43;;;;;;;15.83;14.40;;;-0.80;99.90;;;-0.14;95.89;99454.78;5184170;28;20226;-63
2022/01/25 00:57:16;;;;;;;18.87;15.60;;;-0.80;99.90;;;-0.14;94.97;99452.25;5192617;28;20228;-65
2022/01/25 00:59:49;;;;;;;18.87;16.20;;;-0.80;99.90;;;-0.14;95.35;99461.38;5184286;28;20236;-63
2022/01/25 01:02:22;;;;;;;17.50;15.73;;;-0.90;99.90;;;-0.30;94.81;99461.09;5192694;28;20225;-65
2022/01/25 01:04:56;;;;;;;18.10;16.20;;;-0.90;99.90;;;-0.27;94.90;99458.97;5184460;28;20219;-62
2022/01/25 01:07:30;;;;;;;18.20;15.80;;;-0.90;99.90;;;-0.31;95.41;99460.22;5186348;28;20229;-65
2022/01/25 01:10:04;;;;;;;17.17;15.37;;;-1.00;99.90;;;-0.30;94.69;99464.50;5202207;28;20716;-64
2022/01/25 01:15:40;;;;;;;19.03;16.70;;;-1.00;99.90;;;-0.38;94.75;99461.75;5128884;28;20234;-64
2022/01/25 01:29:52;;;;;;;22.43;19.30;;;-1.00;99.90;;;-0.30;95.54;99469.53;5199356;28;20227;-65
2022/01/25 01:32:56;;;;;;;22.23;19.80;;;-0.90;99.90;;;-0.30;95.29;99469.53;5168137;28;20229;-63
2022/01/25 01:35:42;;;;;;;23.60;18.60;;;-0.90;99.90;;;-0.30;95.64;99466.13;5186436;28;20236;-63
2022/01/25 01:38:45;;;;;;;23.20;19.83;;;-0.90;99.90;;;-0.31;95.53;99457.69;5187603;28;20235;-64
2022/01/25 01:41:34;;;;;;;20.50;18.40;;;-0.90;99.90;;;-0.27;95.67;99464.00;5187933;28;20219;-62
2022/01/25 01:44:10;;;;;;;20.20;18.20;;;-0.90;99.90;;;-0.29;95.29;99461.28;5187866;28;20224;-63
2022/01/25 01:46:57;;;;;;;22.17;18.50;;;-0.90;99.90;;;-0.32;96.01;99465.03;5196786;28;20285;-66
2022/01/25 01:49:38;;;;;;;21.00;18.70;;;-0.90;99.90;;;-0.34;95.66;99467.38;5196048;28;20627;-62
2022/01/25 01:52:13;;;;;;;22.63;20.20;;;-1.00;99.90;;;-0.38;95.92;99459.25;5188160;28;20234;-63
2022/01/25 01:54:46;;;;;;;20.77;18.57;;;-1.00;99.90;;;-0.38;95.97;99465.16;5187235;28;20862;-63
2022/01/25 01:57:21;;;;;;;23.70;19.63;;;-1.00;99.90;;;-0.35;96.13;99457.13;5187992;28;20232;-63
2022/01/25 01:59:54;;;;;;;22.60;19.97;;;-1.00;99.90;;;-0.36;95.73;99461.25;5181101;28;20693;-64
2022/01/25 02:02:27;;;;;;;20.97;18.83;;;-0.90;99.90;;;-0.32;95.88;99455.88;5187632;28;20227;-63
2022/01/25 02:05:00;;;;;;;21.17;18.60;;;-0.90;99.90;;;-0.28;96.08;99452.16;5184274;28;20231;-63
2022/01/25 02:07:33;;;;;;;25.70;19.93;;;-0.90;99.90;;;-0.31;95.72;99447.66;5192303;28;20222;-64
2022/01/25 02:10:08;;;;;;;23.27;18.93;;;-0.90;99.90;;;-0.34;95.84;99457.31;5194327;28;20233;-63
2022/01/25 02:12:46;;;;;;;22.73;18.13;;;-1.00;99.90;;;-0.30;95.45;99453.56;5193869;28;20242;-66
2022/01/25 02:15:20;;;;;;;21.03;18.17;;;-0.90;99.90;;;-0.30;95.75;99458.59;5187535;28;20731;-63
2022/01/25 02:23:36;;;;;;;19.60;17.40;;;-1.10;99.90;;;-0.43;95.19;99462.78;5186906;28;20257;-63
2022/01/25 02:26:12;;;;;;;20.37;16.87;;;-1.20;99.90;;;-0.44;94.07;99450.94;5187134;28;20225;-63
2022/01/25 02:28:46;;;;;;;18.60;16.47;;;-1.20;99.90;;;-0.50;94.67;99449.47;5187285;28;20223;-64
2022/01/25 02:31:19;;;;;;;20.43;16.70;;;-1.20;99.90;;;-0.55;94.14;99442.06;5187170;28;20223;-64
2022/01/25 02:33:52;;;;;;;20.30;17.00;;;-1.20;99.90;;;-0.53;95.02;99439.03;5191966;28;20625;-63
2022/01/25 02:36:28;;;;;;;21.23;17.70;;;-1.20;99.90;;;-0.63;94.36;99441.13;5186612;28;20690;-63
2022/01/25 02:39:01;;;;;;;20.87;17.53;;;-1.30;99.90;;;-0.60;95.04;99436.50;5192088;28;20216;-64
2022/01/25 02:41:35;;;;;;;20.97;18.77;;;-1.30;99.90;;;-0.63;94.17;99433.59;5181062;28;20228;-66
2022/01/25 02:44:08;;;;;;;20.73;18.43;;;-1.30;99.90;;;-0.61;95.18;99434.66;5176002;28;20233;-64
2022/01/25 02:49:34;;;;;;;24.03;19.43;;;-1.40;99.90;;;-0.70;94.68;99434.41;5186618;28;20220;-64
2022/01/25 02:52:09;;;;;;;21.53;18.60;;;-1.40;99.90;;;-0.58;93.80;99440.06;5186854;28;20226;-64
2022/01/25 02:54:42;;;;;;;20.17;17.53;;;-1.30;99.90;;;-0.52;94.29;99434.91;5186445;28;20278;-64
2022/01/25 02:57:16;;;;;;;18.40;16.23;;;-1.40;99.90;;;-0.52;92.67;99440.84;5186617;28;20227;-63
2022/01/25 02:59:49;;;;;;;19.63;17.13;;;-1.40;99.90;;;-0.61;94.15;99432.16;5186223;28;20219;-63
2022/01/25 03:02:22;;;;;;;18.23;16.20;;;-1.40;99.90;;;-0.64;93.76;99431.78;5187040;28;20228;-65
2022/01/25 03:04:55;;;;;;;17.17;15.47;;;-1.40;99.90;;;-0.68;93.79;99435.53;5183885;28;20222;-65
2022/01/25 03:07:30;;;;;;;21.63;17.20;;;-1.40;99.90;;;-0.73;94.12;99429.03;5184617;28;20224;-65
2022/01/25 03:10:05;;;;;;;19.97;16.73;;;-1.50;99.90;;;-0.75;93.09;99430.44;5183461;28;20245;-65
2022/01/25 03:12:43;;;;;;;19.77;17.57;;;-1.50;99.90;;;-0.81;94.65;99427.16;5188095;28;20223;-65
2022/01/25 03:15:30;;;;;;;20.33;17.90;;;-1.50;99.90;;;-0.71;93.25;99431.75;5183115;28;20230;-65
2022/01/25 03:18:12;;;;;;;20.43;16.97;;;-1.50;99.90;;;-0.80;93.20;99421.44;5183413;28;20240;-66
2022/01/25 03:20:51;;;;;;;19.07;16.07;;;-1.50;99.90;;;-0.83;93.77;99425.16;5184649;28;20225;-65
2022/01/25 03:23:28;;;;;;;18.07;16.00;;;-1.50;99.90;;;-0.84;94.13;99425.88;5184478;28;20228;-65
2022/01/25 03:26:01;;;;;;;19.50;16.43;;;-1.50;99.90;;;-0.88;94.12;99424.59;5178344;28;20220;-65
2022/01/25 03:28:34;;;;;;;17.73;15.67;;;-1.60;99.90;;;-0.92;94.33;99415.78;5192011;28;20222;-65
2022/01/25 03:31:07;;;;;;;19.67;16.43;;;-1.60;99.90;;;-0.92;93.89;99415.78;5185007;28;20224;-65
2022/01/25 03:33:41;;;;;;;20.27;17.87;;;-1.60;99.90;;;-0.87;94.18;99402.91;5184559;28;20221;-65
2022/01/25 03:36:15;;;;;;;21.23;17.80;;;-1.50;99.90;;;-1.11;94.57;99404.13;5184755;28;20225;-64
2022/01/25 03:38:50;;;;;;;20.00;16.10;;;-1.70;99.90;;;-0.96;94.81;99411.06;5187275;28;20233;-65
2022/01/25 03:41:23;;;;;;;23.23;17.87;;;-1.60;99.90;;;-1.00;94.31;99412.97;5186949;28;20226;-65
2022/01/25 03:43:57;;;;;;;23.83;18.27;;;-1.60;99.90;;;-1.03;94.06;99411.03;5184025;28;20587;-65
2022/01/25 03:46:37;;;;;;;22.50;18.17;;;-1.70;99.90;;;-0.99;93.85;99409.78;5182319;28;20226;-65
2022/01/25 03:52:00;;;;;;;20.40;16.90;;;-1.60;99.90;;;-0.92;94.67;99405.75;5179062;28;20224;-65
2022/01/25 03:54:35;;;;;;;20.87;16.90;;;-1.60;99.90;;;-0.92;93.38;99412.34;5187159;28;20530;-65
2022/01/25 03:57:09;;;;;;;19.40;15.80;;;-1.60;99.90;;;-0.89;93.62;99405.19;5192085;28;20229;-65
2022/01/25 03:59:41;;;;;;;18.23;15.50;;;-1.60;99.90;;;-0.89;93.50;99409.31;5184109;28;20223;-66
2022/01/25 04:02:15;;;;;;;18.60;16.10;;;-1.70;99.90;;;-0.85;92.40;99404.91;5183792;28;20222;-65
2022/01/25 04:04:53;;;;;;;20.03;16.63;;;-1.70;99.90;;;-0.86;92.05;99402.19;5183386;28;20230;-65
2022/01/25 04:07:31;;;;;;;20.73;16.27;;;-1.70;99.90;;;-0.81;91.59;99408.69;5185018;28;20226;-65
2022/01/25 04:10:06;;;;;;;20.07;16.03;;;-1.80;99.90;;;-0.79;91.05;99409.78;5182636;28;20670;-65
2022/01/25 04:12:40;;;;;;;18.97;16.00;;;-1.80;99.90;;;-0.97;91.71;99405.88;5192344;28;20225;-65
2022/01/25 04:15:13;;;;;;;18.00;15.60;;;-1.90;99.90;;;-1.11;92.33;99401.63;5182656;28;20228;-65
2022/01/25 04:17:52;;;;;;;17.93;15.77;;;-1.90;99.90;;;-1.22;93.02;99412.78;5181804;28;20223;-65
2022/01/25 04:20:29;;;;;;;17.33;15.47;;;-1.90;99.90;;;-1.21;93.70;99409.56;5180503;28;20232;-65
2022/01/25 04:25:54;;;;;;;18.83;16.77;;;-1.80;99.90;;;-1.21;92.97;99404.56;5187717;28;20725;-65
2022/01/25 04:28:27;;;;;;;19.97;16.67;;;-1.80;99.90;;;-1.21;93.21;99408.66;5193674;28;20221;-64
2022/01/25 04:31:00;;;;;;;17.90;15.83;;;-1.90;99.90;;;-1.27;93.79;99392.84;5177778;28;20233;-65
2022/01/25 04:33:42;;;;;;;24.07;17.63;;;-1.90;99.90;;;-1.29;92.80;99395.16;5188414;28;20244;-65
2022/01/25 04:36:40;;;;;;;20.37;16.90;;;-1.90;99.90;;;-1.28;93.09;99383.53;5192059;28;20222;-65
2022/01/25 04:50:58;;;;;;;20.37;16.77;;;-2.00;99.90;;;-1.28;93.89;99391.06;5186346;28;20339;-64
2022/01/25 04:53:41;;;;;;;20.90;16.87;;;-1.90;99.90;;;-1.29;93.27;99376.69;5187322;28;20221;-64
2022/01/25 04:56:20;;;;;;;20.33;17.17;;;-1.90;99.90;;;-1.37;94.20;99380.75;5188002;28;20227;-65
2022/01/25 04:59:02;;;;;;;22.23;17.37;;;-2.00;99.90;;;-1.35;94.13;99376.81;5185003;28;20214;-65
2022/01/25 05:01:36;;;;;;;19.97;15.70;;;-2.00;99.90;;;-1.39;94.08;99378.03;5180545;28;20214;-65
2022/01/25 05:04:13;;;;;;;22.93;17.93;;;-2.00;99.90;;;-1.38;93.16;99378.94;5187639;28;20217;-65
2022/01/25 05:06:49;;;;;;;22.20;17.80;;;-2.00;99.90;;;-1.38;93.39;99379.84;5178553;28;20221;-65
2022/01/25 05:09:22;;;;;;;24.27;18.53;;;-2.00;99.90;;;-1.40;92.89;99378.75;5184739;28;20222;-65
2022/01/25 05:11:58;;;;;;;21.67;17.83;;;-2.00;99.90;;;-1.53;92.17;99372.88;5187439;28;20222;-65
2022/01/25 05:14:35;;;;;;;25.87;18.67;;;-2.20;99.90;;;-1.51;92.90;99380.63;5184977;28;20226;-65
2022/01/25 05:17:11;;;;;;;25.33;18.17;;;-2.20;99.90;;;-1.49;93.73;99375.06;5181133;28;20264;-65
2022/01/25 05:22:40;;;;;;;25.43;19.17;;;-2.10;99.90;;;-1.41;93.40;99379.44;5185466;28;20222;-65
2022/01/25 05:25:13;;;;;;;23.37;18.23;;;-2.00;99.90;;;-1.42;94.08;99377.66;5185245;28;20218;-64
2022/01/25 05:27:46;;;;;;;22.77;18.80;;;-2.00;99.90;;;-1.41;94.62;99371.94;5180010;28;20214;-64
2022/01/25 05:30:21;;;;;;;24.10;19.50;;;-2.00;99.90;;;-1.38;93.98;99369.81;5185404;28;20226;-63
2022/01/25 05:32:54;;;;;;;27.77;21.13;;;-2.10;99.90;;;-1.40;93.86;99375.34;5186145;28;20489;-64
2022/01/25 05:35:27;;;;;;;20.47;18.27;;;-2.10;99.90;;;-1.48;93.45;99384.41;5184149;28;20690;-65
2022/01/25 05:38:00;;;;;;;24.37;18.13;;;-2.10;99.90;;;-1.53;93.13;99382.91;5186272;28;20230;-65
2022/01/25 05:40:43;;;;;;;23.33;18.03;;;-2.10;99.90;;;-1.50;94.07;99382.41;5184424;28;20220;-65
2022/01/25 05:46:20;;;;;;;21.73;18.13;;;-2.10;99.90;;;-1.53;93.75;99382.91;5161295;28;20225;-65
2022/01/25 05:48:53;;;;;;;22.00;17.93;;;-2.20;99.90;;;-1.54;94.47;99390.25;5191816;28;20222;-64
2022/01/25 05:51:26;;;;;;;24.00;18.47;;;-2.20;99.90;;;-1.52;94.34;99392.22;5186989;28;20230;-64
2022/01/25 05:53:59;;;;;;;24.53;18.27;;;-2.20;99.90;;;-1.60;93.50;99392.88;5183245;28;20219;-65
2022/01/25 05:56:32;;;;;;;26.80;19.27;;;-2.20;99.90;;;-1.56;93.08;99390.03;5186367;28;20226;-64
2022/01/25 05:59:05;;;;;;;22.73;18.53;;;-2.20;99.90;;;-1.57;92.46;99393.25;5187821;28;20716;-65
2022/01/25 06:01:39;;;;;;;25.50;19.33;;;-2.20;99.90;;;-1.63;92.52;99393.38;5184529;28;20575;-65
2022/01/25 06:04:12;;;;;;;28.27;21.80;;;-2.30;99.90;;;-1.63;92.36;99404.97;5185300;28;20760;-65
2022/01/25 06:06:46;;;;;;;26.67;21.63;;;-2.30;99.90;;;-1.71;92.93;99404.03;5181027;28;20228;-65
2022/01/25 06:09:19;;;;;;;24.17;19.37;;;-2.30;99.90;;;-1.64;92.69;99408.19;5183527;28;20233;-65
2022/01/25 06:11:52;;;;;;;24.10;19.80;;;-2.30;99.90;;;-1.64;92.18;99413.22;5185298;28;20237;-65
2022/01/25 06:14:25;;;;;;;27.37;20.80;;;-2.30;99.90;;;-1.66;92.89;99409.59;5189959;28;20225;-65
2022/01/25 06:17:00;;;;;;;24.80;20.73;;;-2.20;99.90;;;-1.61;93.21;99412.00;5192490;28;20227;-63
2022/01/25 06:19:33;;;;;;;30.77;21.90;;;-2.10;99.90;;;-1.56;93.80;99407.59;5193937;28;20218;-66
2022/01/25 06:22:06;;;;;;;28.30;21.67;;;-2.10;99.90;;;-1.53;94.90;99413.00;5186439;28;20224;-64
2022/01/25 06:24:40;;;;;;;30.07;21.67;;;-2.10;99.90;;;-1.47;93.70;99408.75;5185180;28;20229;-64
2022/01/25 06:27:13;;;;;;;29.03;22.83;;;-2.10;99.90;;;-1.49;94.44;99415.16;5176186;28;20214;-65
2022/01/25 06:29:47;;;;;;;26.27;20.37;;;-2.10;99.90;;;-1.47;94.96;99416.28;5184675;28;20214;-64
2022/01/25 06:32:22;;;;;;;30.40;22.70;;;-2.10;99.90;;;-1.50;93.35;99428.41;5184846;28;20227;-63
2022/01/25 06:34:55;;;;;;;25.83;20.83;;;-2.10;99.90;;;-1.47;93.07;99420.41;5184091;28;20226;-64
2022/01/25 06:37:28;;;;;;;26.30;20.57;;;-2.10;99.90;;;-1.49;93.80;99429.31;5184802;28;20234;-64
2022/01/25 06:40:01;;;;;;;27.93;21.03;;;-2.10;99.90;;;-1.53;93.99;99428.03;5184214;28;20313;-64
2022/01/25 06:42:35;;;;;;;24.10;20.10;;;-2.10;99.90;;;-1.47;93.44;99433.81;5191906;28;20224;-64
2022/01/25 06:45:13;;;;;;;22.87;19.23;;;-2.10;99.90;;;-1.42;93.28;99431.94;5182328;28;20236;-64
2022/01/25 06:47:51;;;;;;;23.93;18.00;;;-2.10;99.90;;;-1.47;92.55;99433.81;5186109;28;20231;-64
2022/01/25 06:50:24;;;;;;;21.03;17.27;;;-2.10;99.90;;;-1.47;93.64;99442.97;5192067;28;20604;-64
2022/01/25 06:52:58;;;;;;;24.03;18.27;;;-2.20;99.90;;;-1.51;93.53;99449.19;5184824;28;20222;-64
2022/01/25 06:55:44;;;;;;;28.17;19.40;;;-2.20;99.90;;;-1.53;92.28;99452.19;5184580;28;20620;-64
2022/01/25 06:58:17;;;;;;;27.17;19.57;;;-2.20;99.90;;;-1.52;93.66;99449.88;5182852;28;20236;-64
2022/01/25 07:00:50;;;;;;;22.43;18.13;;;-2.20;99.90;;;-1.49;92.57;99457.78;5187665;28;20482;-63
2022/01/25 07:03:25;;;;;;;24.93;19.53;;;-2.20;99.90;;;-1.45;92.17;99451.59;5186002;28;20230;-63
2022/01/25 07:05:58;;;;;;;24.37;19.13;;;-2.20;99.90;;;-1.49;91.21;99460.28;5183204;28;20576;-63
2022/01/25 07:08:32;;;;;;;24.13;19.27;;;-2.20;99.90;;;-1.58;91.15;99454.09;5196355;28;20220;-65
2022/01/25 07:11:05;;;;;;;27.10;21.33;;;-2.30;99.90;;;-1.73;91.58;99457.16;5185416;28;20226;-64
2022/01/25 07:13:38;;;;;;;31.17;23.13;;;-2.40;99.90;;;-1.67;91.98;99460.44;5187741;28;20636;-64
2022/01/25 07:16:11;;;;;;;27.83;22.57;;;-2.30;99.90;;;-1.65;92.22;99456.53;5185615;28;20222;-64
2022/01/25 07:18:46;;;;;;;28.07;21.73;;;-2.30;99.90;;;-1.63;93.21;99461.06;5183903;28;20375;-64
2022/01/25 07:21:19;;;;;;;26.80;20.67;;;-2.20;99.90;;;-1.55;93.62;99462.00;5184488;28;20709;-64
2022/01/25 07:23:52;;;;;;;27.00;21.77;;;-2.20;99.90;;;-1.52;93.07;99467.44;5184034;28;20219;-65
2022/01/25 07:26:25;;;;;;;27.13;21.20;;;-2.20;99.90;;;-1.45;93.38;99467.53;5182165;28;20249;-64
2022/01/25 07:28:58;;;;;;;27.77;21.07;;;-2.10;99.90;;;-1.45;92.27;99472.53;5181617;28;20748;-64
2022/01/25 07:31:31;;;;;;;27.97;20.87;;;-2.10;99.90;;;-1.48;91.50;99477.16;5182782;28;20224;-65
2022/01/25 07:34:07;;;;;;;26.70;20.13;;;-2.10;99.90;;;-1.37;91.45;99476.94;5179680;28;20232;-63
2022/01/25 07:36:42;;;;;;;26.37;21.43;;;-2.10;99.90;;;-1.21;91.39;99468.88;5181818;28;20244;-64
2022/01/25 07:39:32;;;;;;;25.17;20.37;;;-1.90;99.90;;;-1.07;91.14;99470.63;5182604;28;20230;-66
2022/01/25 07:42:06;;;;;;;25.00;21.13;;;-1.80;99.90;;;-0.97;91.69;99461.97;5191933;28;20736;-65
2022/01/25 07:44:40;;;;;;;29.53;21.50;;;-1.70;99.90;;;-0.89;90.30;99457.00;5178082;28;20253;-65
2022/01/25 07:47:13;;;;;;;28.00;20.97;;;-1.60;99.90;;;-0.78;90.96;99445.09;5178701;28;20646;-65
2022/01/25 07:49:48;;;;;;;30.70;24.37;;;-1.50;99.90;;;-0.74;90.48;99454.84;5181216;28;20305;-65
2022/01/25 07:52:21;;;;;;;30.00;24.20;;;-1.40;99.90;;;-0.55;90.81;99455.53;5178605;28;20308;-65
2022/01/25 07:54:54;;;;;;;27.07;23.13;;;-1.10;99.90;;;-0.33;90.67;99454.09;5182158;28;20218;-65
2022/01/25 07:57:27;;;;;;;28.83;21.53;;;-0.90;99.90;;;-0.32;90.21;99453.38;5183734;28;20230;-65
2022/01/25 08:00:01;;;;;;;24.73;20.33;;;-0.90;99.90;;;-0.10;89.85;99449.41;5179838;28;20228;-65
2022/01/25 08:02:35;;;;;;;29.77;22.37;;;-0.70;99.90;;;0.07;89.83;99443.94;5183881;28;20220;-65
2022/01/25 08:05:10;;;;;;;26.80;20.17;;;-0.50;99.90;;;0.37;88.64;99445.88;5180781;28;20686;-65
2022/01/25 08:08:01;;;;;;;26.23;21.00;;;-0.30;99.90;;;0.50;87.84;99453.31;5185840;28;20248;-65
2022/01/25 08:10:49;;;;;;;26.80;19.63;;;-0.20;99.90;;;0.74;86.63;99451.22;5180197;28;20224;-65
2022/01/25 08:13:32;;;;;;;27.63;20.67;;;-0.10;99.90;;;0.95;85.49;99442.84;5192234;28;20226;-65
2022/01/25 08:16:22;;;;;;;23.03;20.03;;;0.00;99.90;;;0.92;85.92;99436.53;5164439;28;20254;-65
2022/01/25 08:18:56;;;;;;;23.50;20.57;;;0.20;99.90;;;0.96;85.55;99438.72;5182008;28;20226;-66
2022/01/25 08:21:49;;;;;;;25.77;19.80;;;0.20;99.90;;;1.00;85.50;99431.72;5171628;28;20220;-65
2022/01/25 08:24:32;;;;;;;27.50;20.70;;;0.20;99.90;;;1.03;83.41;99431.16;5181629;28;20222;-65
2022/01/25 08:27:22;;;;;;;25.10;21.03;;;0.20;99.90;;;1.11;83.39;99438.00;5175880;28;20218;-65
2022/01/25 08:30:19;;;;;;;23.83;19.60;;;0.40;99.90;;;1.10;83.36;99436.22;5179380;28;20316;-65
2022/01/25 08:32:58;;;;;;;26.30;21.93;;;0.40;99.90;;;1.27;83.78;99435.72;5173529;28;20632;-65
2022/01/25 08:35:33;;;;;;;24.47;19.63;;;0.60;99.90;;;1.68;83.10;99433.00;5181289;28;20224;-65
2022/01/25 08:38:24;;;;;;;23.40;18.67;;;0.80;99.90;;;2.06;80.98;99426.47;5180709;28;20228;-65
2022/01/25 08:41:06;;;;;;;22.77;19.83;;;0.90;99.90;;;1.93;81.09;99431.69;5182226;28;20222;-65
2022/01/25 08:43:59;;;;;;;24.03;19.67;;;1.00;99.90;;;1.89;81.00;99438.72;5152637;28;20237;-65
2022/01/25 08:46:39;;;;;;;23.87;20.27;;;1.00;99.90;;;2.00;81.42;99426.66;5179807;28;20282;-65
2022/01/25 08:49:15;;;;;;;23.87;19.83;;;1.20;99.90;;;2.13;80.85;99433.09;5181018;28;20657;-65
2022/01/25 08:52:04;;;;;;;24.47;21.70;;;1.40;99.90;;;2.25;80.06;99425.31;5155166;28;20732;-65
2022/01/25 08:54:53;;;;;;;25.07;21.70;;;1.50;99.90;;;2.22;80.07;99435.03;5173108;28;20238;-65
2022/01/25 08:57:58;;;;;;;24.03;20.37;;;1.50;99.90;;;2.37;79.48;99432.47;5120498;28;20270;-65
2022/01/25 09:00:34;;;;;;;25.13;21.83;;;1.70;99.90;;;2.59;79.81;99436.72;5118433;28;20317;-65
2022/01/25 09:03:07;;;;;;;23.83;20.57;;;1.70;99.90;;;2.82;78.96;99445.97;5152229;28;20249;-65
2022/01/25 09:05:40;;;;;;;26.00;21.83;;;1.80;99.90;;;2.74;78.63;99444.22;5186295;28;20425;-65
2022/01/25 09:08:19;;;;;;;26.40;21.70;;;1.80;99.90;;;2.70;79.19;99446.41;5188478;28;20244;-65
2022/01/25 09:10:59;;;;;;;25.30;21.10;;;1.90;99.90;;;2.82;78.40;99438.41;5177641;28;20308;-65
2022/01/25 09:13:32;;;;;;;24.73;20.73;;;2.10;99.90;;;2.84;78.21;99449.59;5190189;28;20317;-65
2022/01/25 09:16:07;;;;;;;27.20;22.83;;;2.20;99.90;;;2.91;76.53;99449.53;5186695;28;20236;-65
2022/01/25 09:18:40;;;;;;;24.37;21.60;;;2.30;99.90;;;2.81;77.72;99449.25;5190552;28;20238;-65
2022/01/25 09:21:13;;;;;;;24.63;21.67;;;2.20;99.90;;;3.08;77.63;99446.38;5182966;28;20222;-65
2022/01/25 09:23:46;;;;;;;22.67;20.20;;;2.20;99.90;;;3.10;77.53;99442.41;5181988;28;20226;-64
2022/01/25 09:26:22;;;;;;;23.33;19.80;;;2.20;99.90;;;3.11;77.04;99434.97;5188841;28;20655;-64
2022/01/25 09:28:57;;;;;;;22.60;20.20;;;2.20;99.90;;;3.38;76.39;99434.63;5182836;28;20226;-65
2022/01/25 09:31:31;;;;;;;27.33;21.50;;;2.20;99.90;;;3.30;76.42;99430.34;5182599;28;20229;-65
2022/01/25 09:34:04;;;;;;;23.53;20.77;;;2.30;99.90;;;3.42;76.64;99428.25;5187147;28;20227;-65
2022/01/25 09:36:37;;;;;;;25.97;21.40;;;2.30;99.90;;;3.34;76.57;99426.50;5180979;28;20223;-65
2022/01/25 09:39:17;;;;;;;25.93;19.17;;;2.50;99.90;;;3.39;76.46;99433.88;5187833;28;20231;-65
2022/01/25 09:41:53;;;;;;;23.83;20.70;;;2.60;99.90;;;3.32;77.50;99431.41;5191306;28;20240;-65
2022/01/25 09:44:26;;;;;;;25.73;19.70;;;2.70;99.90;;;3.43;77.43;99426.63;5189177;28;20227;-65
2022/01/25 09:46:59;;;;;;;27.47;21.43;;;2.80;99.90;;;3.50;77.43;99431.63;5185455;28;20229;-65
2022/01/25 09:49:33;;;;;;;23.47;19.90;;;2.90;99.90;;;3.55;77.57;99436.47;5185534;28;20220;-65
2022/01/25 09:52:08;;;;;;;22.00;18.73;;;3.00;99.90;;;3.58;77.40;99429.22;5185054;28;20227;-65
2022/01/25 09:54:42;;;;;;;22.83;19.17;;;3.10;99.90;;;3.67;76.28;99430.97;5190066;28;20221;-65
2022/01/25 09:57:16;;;;;;;21.90;19.40;;;3.10;99.90;;;3.91;76.49;99426.00;5189248;28;20222;-65
2022/01/25 09:59:50;;;;;;;23.77;19.67;;;3.30;99.90;;;4.09;75.54;99424.56;5179344;28;20229;-65
2022/01/25 10:02:45;;;;;;;21.20;18.73;;;3.50;99.90;;;4.17;75.79;99426.28;5186343;28;20343;-64
2022/01/25 10:05:25;;;;;;;22.30;19.83;;;3.60;99.90;;;4.17;75.88;99423.75;5185207;28;20229;-65
2022/01/25 10:08:00;;;;;;;25.30;20.00;;;3.70;99.90;;;4.29;75.87;99424.16;5186345;28;20233;-65
2022/01/25 10:10:36;;;;;;;26.53;20.90;;;3.70;99.90;;;4.45;76.13;99412.41;5177575;28;20245;-65
2022/01/25 10:13:16;;;;;;;25.03;20.70;;;3.80;99.90;;;4.50;75.75;99416.31;5186253;28;20317;-65
2022/01/25 10:15:51;;;;;;;24.43;20.00;;;3.80;99.90;;;4.63;74.93;99425.19;5179688;28;20227;-65
2022/01/25 10:18:40;;;;;;;22.30;19.83;;;3.90;99.90;;;4.60;74.19;99422.34;5180626;28;20265;-65
2022/01/25 10:21:17;;;;;;;26.40;21.50;;;3.90;99.90;;;4.75;74.17;99418.91;5184269;28;20218;-65
2022/01/25 10:24:09;;;;;;;25.07;20.77;;;4.00;99.90;;;4.85;74.70;99411.50;5173714;28;20776;-65
2022/01/25 10:26:52;;;;;;;24.47;19.77;;;4.10;99.90;;;4.93;73.86;99415.75;5185663;28;20694;-65
2022/01/25 10:29:30;;;;;;;25.27;20.67;;;4.20;99.90;;;4.88;73.89;99409.28;5178558;28;20233;-65
2022/01/25 10:32:09;;;;;;;22.60;19.90;;;4.20;99.90;;;4.99;71.68;99414.59;5185161;28;20226;-65
2022/01/25 10:34:48;;;;;;;24.17;20.53;;;4.20;99.90;;;5.04;72.83;99403.31;5184339;28;20222;-65
2022/01/25 10:37:26;;;;;;;24.47;19.83;;;4.30;99.90;;;5.14;72.86;99406.03;5184244;28;20590;-65
2022/01/25 10:39:59;;;;;;;23.30;19.40;;;4.40;99.90;;;5.29;71.68;99402.53;5185878;28;20230;-65
2022/01/25 10:42:34;;;;;;;21.00;18.73;;;4.30;99.90;;;5.17;71.31;99406.34;5191590;28;20222;-66
2022/01/25 10:45:16;;;;;;;23.50;19.67;;;4.30;99.90;;;5.09;71.20;99405.53;5185663;28;20226;-65
2022/01/25 10:47:52;;;;;;;22.43;19.97;;;4.20;99.90;;;5.20;72.24;99396.50;5186905;28;20586;-65
2022/01/25 10:50:28;;;;;;;22.97;20.20;;;4.40;99.90;;;5.23;72.25;99391.75;5184536;28;20630;-64
2022/01/25 10:56:40;;;;;;;24.00;20.03;;;4.50;99.90;;;5.61;70.81;99387.16;5183741;22;20230;-64
2022/01/25 10:59:17;;;;;;;23.63;19.53;;;4.60;99.90;;;5.54;70.42;99385.63;5165563;28;20226;-64
2022/01/25 11:01:55;;;;;;;23.93;20.07;;;4.60;99.90;;;5.61;70.00;99382.09;5163102;28;20229;-64
2022/01/25 11:04:34;;;;;;;23.57;19.23;;;4.70;99.90;;;5.59;70.17;99375.97;5167584;28;20226;-65
2022/01/25 11:07:11;;;;;;;23.33;19.20;;;4.80;99.90;;;5.61;70.18;99377.91;5162726;28;20226;-64
2022/01/25 11:09:47;;;;;;;28.23;20.57;;;4.70;99.90;;;5.65;69.50;99371.50;5175045;28;20408;-64
2022/01/25 11:12:23;;;;;;;21.63;18.97;;;4.70;99.90;;;5.57;69.41;99375.78;5163723;28;20219;-66
2022/01/25 11:14:57;;;;;;;23.37;19.43;;;4.70;99.90;;;5.50;69.59;99368.34;5163975;28;20229;-64
2022/01/25 11:17:33;;;;;;;25.07;19.77;;;4.70;99.90;;;5.57;69.78;99372.38;5163813;28;20517;-64
2022/01/25 11:20:08;;;;;;;23.23;18.83;;;4.70;99.90;;;5.64;69.73;99369.72;5168986;28;20724;-64
2022/01/25 11:22:42;;;;;;;22.50;19.50;;;4.80;99.90;;;5.63;70.29;99378.06;5152489;28;20734;-64
2022/01/25 11:25:19;;;;;;;21.87;19.03;;;4.80;99.90;;;5.67;71.07;99381.81;5162549;28;20223;-64
2022/01/25 11:27:53;;;;;;;22.47;18.47;;;5.00;99.90;;;5.73;71.03;99383.31;5162215;28;20223;-64
2022/01/25 11:30:26;;;;;;;22.47;18.37;;;5.10;99.90;;;5.78;70.26;99377.06;5160398;28;20223;-64
2022/01/25 11:33:01;;;;;;;22.10;18.97;;;5.10;99.90;;;5.84;69.13;99380.22;5159926;28;20754;-64
2022/01/25 11:35:34;;;;;;;23.67;19.70;;;5.10;99.90;;;5.96;69.47;99378.03;5154845;28;20242;-64
2022/01/25 11:38:08;;;;;;;21.43;19.13;;;5.10;99.90;;;5.98;69.37;99375.63;5165546;28;20230;-63
2022/01/25 11:40:47;;;;;;;24.20;19.53;;;5.20;99.90;;;6.04;69.71;99376.28;5170726;28;20223;-63
2022/01/25 11:43:20;;;;;;;23.40;18.33;;;5.00;99.90;;;5.91;69.94;99371.56;5154467;28;20602;-63
2022/01/25 11:46:04;;;;;;;23.10;18.90;;;5.00;99.90;;;5.96;70.33;99367.00;5165001;28;20773;-63
2022/01/25 11:48:45;;;;;;;21.77;18.93;;;5.10;99.90;;;5.93;70.54;99372.66;5159462;28;20590;-63
2022/01/25 11:51:20;;;;;;;23.23;18.17;;;5.20;99.90;;;6.00;68.76;99374.16;5162472;28;20599;-63
2022/01/25 11:53:53;;;;;;;23.97;19.37;;;5.10;99.90;;;5.97;69.76;99366.25;5157929;28;20224;-63
2022/01/25 11:56:27;;;;;;;22.77;19.17;;;5.20;99.90;;;6.07;69.61;99366.41;5160010;28;20683;-63
2022/01/25 11:59:05;;;;;;;22.40;19.13;;;5.20;99.90;;;6.08;69.88;99363.13;5163252;28;20226;-64
2022/01/25 12:01:38;;;;;;;21.37;18.50;;;5.30;99.90;;;5.99;69.23;99364.75;5171110;28;20309;-64